Time;durP1;ratioP1;P1;durP2;ratioP2;P2;SDS_P1;SDS_P2;PMS_P1;PMS_P2;Temp;Humidity;BMP_temperature;BMP_pressure;BME280_temperature;BME280_humidity;BME280_pressure;Samples;Min_cycle;Max_cycle;Signal;HPM_P1;HPM_P2
2022/07/13 00:00:00;;;;;;;952.88;890.17;;;;;;;22.89;42.16;101636.97;694313;28;46545;-65
2022/07/13 00:00:21;;;;;;;984.97;920.70;;;;;;;22.86;42.22;101635.53;695690;28;22388;-65
2022/07/13 00:00:42;;;;;;;985.70;921.35;;;;;;;22.84;42.22;101637.69;695129;28;22415;-66
2022/07/13 00:01:05;;;;;;;946.53;883.03;;;;;;;22.82;42.21;101631.59;695232;28;23415;-65
2022/07/13 00:01:28;;;;;;;979.05;914.15;;;;;;;22.79;42.29;101637.56;693521;28;46329;-65
2022/07/13 00:01:49;;;;;;;985.88;920.97;;;;;;;22.79;42.37;101639.47;693281;28;67524;-65
2022/07/13 00:02:10;;;;;;;986.30;921.50;;;;;;;22.79;42.14;101634.81;694379;28;45052;-66
2022/07/13 00:02:31;;;;;;;951.63;887.75;;;;;;;22.77;42.34;101636.94;695285;28;22369;-65
2022/07/13 00:02:54;;;;;;;959.90;895.45;;;;;;;22.77;42.46;101633.38;694435;28;23307;-66
2022/07/13 00:03:15;;;;;;;962.55;898.13;;;;;;;22.76;42.44;101638.06;694621;28;46304;-65
2022/07/13 00:03:36;;;;;;;969.05;904.38;;;;;;;22.75;42.32;101630.03;695481;28;22397;-65
2022/07/13 00:03:57;;;;;;;924.28;861.00;;;;;;;22.71;42.52;101632.41;694185;28;46500;-65
2022/07/13 00:04:20;;;;;;;950.38;886.38;;;;;;;22.68;42.28;101627.38;695397;28;22385;-65
2022/07/13 00:04:41;;;;;;;943.67;880.17;;;;;;;22.65;42.33;101639.69;694253;28;46309;-65
2022/07/13 00:05:03;;;;;;;935.17;872.00;;;;;;;22.64;42.22;101631.69;694441;28;45349;-66
2022/07/13 00:05:25;;;;;;;941.75;878.22;;;;;;;22.64;42.31;101631.69;695456;28;22229;-65
2022/07/13 00:05:48;;;;;;;905.42;842.88;;;;;;;22.61;42.52;101632.16;692789;28;70546;-65
2022/07/13 00:06:09;;;;;;;945.08;881.30;;;;;;;22.60;42.39;101635.97;694246;28;44363;-65
2022/07/13 00:06:30;;;;;;;950.35;886.50;;;;;;;22.58;42.43;101629.88;694681;28;22427;-65
2022/07/13 00:06:51;;;;;;;915.22;852.47;;;;;;;22.56;42.54;101629.28;694774;28;22357;-65
2022/07/13 00:07:13;;;;;;;944.63;880.83;;;;;;;22.52;42.60;101637.13;692317;28;46314;-65
2022/07/13 00:07:35;;;;;;;957.08;893.03;;;;;;;22.50;42.67;101637.38;693891;28;23399;-66
2022/07/13 00:07:56;;;;;;;964.90;900.42;;;;;;;22.48;42.51;101633.19;692022;28;46410;-65
2022/07/13 00:08:17;;;;;;;965.25;900.65;;;;;;;22.44;42.63;101635.56;694283;28;12269;-65
2022/07/13 00:08:39;;;;;;;951.28;887.35;;;;;;;22.42;42.82;101634.13;693830;28;46340;-65
2022/07/13 00:09:01;;;;;;;930.08;866.83;;;;;;;22.41;42.84;101633.28;693772;28;22420;-65
2022/07/13 00:09:22;;;;;;;938.03;874.58;;;;;;;22.38;42.99;101625.53;694454;28;46295;-65
2022/07/13 00:09:43;;;;;;;967.17;902.80;;;;;;;22.36;42.91;101629.56;694974;28;22371;-65
2022/07/13 00:10:05;;;;;;;958.58;894.50;;;;;;;22.34;43.11;101629.81;695070;28;21326;-66
2022/07/13 00:10:28;;;;;;;954.97;891.00;;;;;;;22.33;42.82;101632.78;694653;28;46377;-65
2022/07/13 00:10:49;;;;;;;978.58;913.72;;;;;;;22.31;42.92;101633.03;692649;28;69242;-65
2022/07/13 00:11:10;;;;;;;987.65;922.45;;;;;;;22.29;43.15;101629.66;695116;28;22432;-65
2022/07/13 00:11:31;;;;;;;990.28;924.97;;;;;;;22.24;43.12;101624.84;694872;28;20811;-65
2022/07/13 00:11:53;;;;;;;929.67;866.40;;;;;;;22.25;43.20;101628.41;694603;28;21171;-66
2022/07/13 00:12:14;;;;;;;920.92;857.78;;;;;;;22.23;43.25;101631.41;694394;28;46337;-65
2022/07/13 00:12:36;;;;;;;1002.33;936.67;;;;;;;22.21;43.29;101621.69;695430;28;23541;-65
2022/07/13 00:12:57;;;;;;;1019.00;953.13;;;;;;;22.19;43.21;101629.34;695107;28;23511;-66
2022/07/13 00:13:19;;;;;;;1017.90;951.90;;;;;;;22.16;43.32;101625.13;694627;28;46314;-66
2022/07/13 00:13:40;;;;;;;1014.28;949.45;;;;;;;22.15;43.18;101629.00;694615;28;43648;-66
2022/07/13 00:14:01;;;;;;;965.15;902.15;;;;;;;22.13;43.41;101628.34;694911;28;22410;-65
2022/07/13 00:14:22;;;;;;;946.22;882.85;;;;;;;22.12;43.31;101623.94;694976;28;22403;-66
2022/07/13 00:14:45;;;;;;;958.10;894.08;;;;;;;22.11;43.64;101630.50;694265;28;22398;-65
2022/07/13 00:15:07;;;;;;;961.70;897.28;;;;;;;22.07;43.56;101627.41;694517;28;44237;-65
2022/07/13 00:15:28;;;;;;;987.00;921.35;;;;;;;22.08;43.62;101619.97;693467;28;68969;-65
2022/07/13 00:15:49;;;;;;;989.13;923.35;;;;;;;22.05;43.52;101618.53;694507;28;21538;-65
2022/07/13 00:16:11;;;;;;;980.83;915.45;;;;;;;22.06;43.67;101619.38;695019;28;22468;-65
2022/07/13 00:16:33;;;;;;;954.13;889.88;;;;;;;22.07;43.68;101616.38;695384;28;20859;-65
2022/07/13 00:16:54;;;;;;;982.67;917.15;;;;;;;22.06;43.72;101619.38;693488;28;69409;-66
2022/07/13 00:17:16;;;;;;;1001.33;935.08;;;;;;;22.07;43.82;101618.28;696524;28;22396;-65
2022/07/13 00:17:37;;;;;;;999.58;933.47;;;;;;;22.06;43.74;101619.38;696132;28;22362;-66
2022/07/13 00:18:00;;;;;;;984.95;919.45;;;;;;;22.05;43.67;101607.53;697103;28;22391;-66
2022/07/13 00:18:21;;;;;;;980.25;914.90;;;;;;;22.07;43.75;101618.28;691233;28;69417;-65
2022/07/13 00:18:42;;;;;;;930.03;866.83;;;;;;;22.04;43.76;101608.59;693475;28;21550;-66
2022/07/13 00:19:03;;;;;;;922.88;859.85;;;;;;;22.10;43.68;101615.06;693895;28;23457;-65
2022/07/13 00:19:25;;;;;;;1005.97;939.83;;;;;;;22.08;43.82;101614.47;693659;28;21538;-66
2022/07/13 00:19:47;;;;;;;1003.00;937.00;;;;;;;22.12;43.67;101615.69;691245;28;69246;-66
2022/07/13 00:20:09;;;;;;;966.97;902.58;;;;;;;22.12;43.52;101612.94;693477;28;23462;-65
2022/07/13 00:20:32;;;;;;;948.95;885.10;;;;;;;22.10;43.60;101618.69;694518;28;44394;-65
2022/07/13 00:20:54;;;;;;;994.97;929.83;;;;;;;22.07;43.55;101610.03;692736;28;69335;-66
2022/07/13 00:21:15;;;;;;;995.55;930.28;;;;;;;22.08;43.55;101620.81;694918;28;45268;-66
2022/07/13 00:21:36;;;;;;;981.58;916.28;;;;;;;22.08;43.56;101617.22;694777;28;21373;-66
2022/07/13 00:21:57;;;;;;;959.67;895.10;;;;;;;22.06;43.64;101616.63;694882;28;23471;-66
2022/07/13 00:22:18;;;;;;;1004.60;938.35;;;;;;;22.05;43.72;101617.69;695509;28;22291;-65
2022/07/13 00:22:41;;;;;;;1019.03;952.25;;;;;;;22.05;43.67;101617.69;694993;28;23498;-65
2022/07/13 00:23:02;;;;;;;1008.13;941.72;;;;;;;22.06;43.55;101611.13;694356;28;46252;-65
2022/07/13 00:23:27;;;;;;;1022.08;955.13;;;;;;;22.05;43.59;101618.53;694489;28;44374;-66
2022/07/13 00:23:48;;;;;;;987.78;922.10;;;;;;;22.06;43.69;101613.88;690825;28;114649;-66
2022/07/13 00:24:14;;;;;;;977.78;912.63;;;;;;;22.04;43.70;101614.09;695657;28;22360;-66
2022/07/13 00:24:35;;;;;;;992.08;926.38;;;;;;;22.01;43.80;101611.00;691533;28;137908;-66
2022/07/13 00:24:56;;;;;;;964.30;899.67;;;;;;;22.03;43.71;101617.09;694762;28;23864;-66
2022/07/13 00:25:18;;;;;;;953.70;889.70;;;;;;;22.01;43.66;101611.00;695099;28;23485;-66
2022/07/13 00:25:39;;;;;;;966.35;901.90;;;;;;;22.00;43.82;101603.81;695258;28;23409;-65
2022/07/13 00:26:01;;;;;;;960.97;896.70;;;;;;;21.97;43.64;101605.09;694076;28;45235;-65
2022/07/13 00:26:22;;;;;;;960.35;896.00;;;;;;;21.96;43.71;101604.25;694092;28;45237;-66
2022/07/13 00:26:43;;;;;;;951.05;887.05;;;;;;;21.95;43.67;101616.31;694768;28;21539;-65
2022/07/13 00:27:05;;;;;;;950.90;886.92;;;;;;;21.87;43.73;101596.56;694649;28;22367;-66
2022/07/13 00:27:27;;;;;;;956.90;892.70;;;;;;;21.89;43.80;101599.91;695161;28;23498;-66
2022/07/13 00:27:48;;;;;;;959.60;895.37;;;;;;;21.89;43.81;101606.25;691514;28;70477;-66
2022/07/13 00:28:10;;;;;;;964.35;899.92;;;;;;;21.90;43.72;101607.94;693060;28;44381;-66
2022/07/13 00:28:31;;;;;;;973.35;908.55;;;;;;;21.88;43.83;101607.34;693503;28;21449;-66
2022/07/13 00:28:54;;;;;;;977.08;912.10;;;;;;;21.87;43.83;101613.91;693840;28;21556;-66
2022/07/13 00:29:15;;;;;;;985.50;920.28;;;;;;;21.86;44.06;101605.88;691878;28;67248;-65
2022/07/13 00:29:36;;;;;;;1003.80;937.90;;;;;;;21.84;43.89;101605.28;693160;28;45423;-66
2022/07/13 00:29:58;;;;;;;991.28;925.53;;;;;;;21.82;43.90;101611.00;695106;28;46316;-65
2022/07/13 00:30:20;;;;;;;992.28;926.53;;;;;;;21.82;43.90;101601.91;694192;28;44177;-65
2022/07/13 00:30:42;;;;;;;1001.42;935.22;;;;;;;21.80;44.00;101615.06;693267;28;69405;-66
2022/07/13 00:31:03;;;;;;;987.00;921.45;;;;;;;21.78;44.03;101609.78;695228;28;21549;-66
2022/07/13 00:31:25;;;;;;;962.80;898.30;;;;;;;21.77;44.15;101605.34;694026;28;46315;-66
2022/07/13 00:31:46;;;;;;;965.53;900.92;;;;;;;21.74;44.05;101605.81;692957;28;21587;-66
2022/07/13 00:32:09;;;;;;;968.72;904.13;;;;;;;21.69;44.16;101603.78;689999;28;45256;-65
2022/07/13 00:32:30;;;;;;;979.25;914.05;;;;;;;21.67;44.13;101603.16;689930;28;44367;-66
2022/07/13 00:32:51;;;;;;;987.45;921.90;;;;;;;21.70;44.20;101610.09;691261;28;21326;-66
2022/07/13 00:33:12;;;;;;;997.97;931.92;;;;;;;21.70;44.22;101610.09;690416;28;21499;-65
2022/07/13 00:33:34;;;;;;;988.50;923.03;;;;;;;21.67;44.26;101611.41;691774;28;21539;-66
2022/07/13 00:33:56;;;;;;;969.17;904.58;;;;;;;21.68;44.26;101615.00;692348;28;44372;-65
2022/07/13 00:34:17;;;;;;;973.08;908.30;;;;;;;21.66;44.19;101612.47;691306;28;46374;-65
2022/07/13 00:34:38;;;;;;;946.78;882.92;;;;;;;21.66;44.26;101617.13;693161;28;23273;-65
2022/07/13 00:34:59;;;;;;;969.95;905.30;;;;;;;21.65;44.40;101616.28;693778;28;18887;-67
2022/07/13 00:35:22;;;;;;;1021.65;955.10;;;;;;;21.64;44.35;101614.59;692798;28;22392;-66
2022/07/13 00:35:44;;;;;;;976.85;911.95;;;;;;;21.64;44.36;101617.34;691925;28;69348;-65
2022/07/13 00:36:06;;;;;;;978.35;913.40;;;;;;;21.62;44.32;101615.94;693027;28;45188;-66
2022/07/13 00:36:27;;;;;;;1014.30;947.90;;;;;;;21.59;44.40;101618.03;692999;28;44374;-65
2022/07/13 00:36:48;;;;;;;1015.65;948.88;;;;;;;21.58;44.45;101615.53;687869;28;23470;-65
2022/07/13 00:37:10;;;;;;;1002.13;935.88;;;;;;;21.57;44.46;101614.69;688017;28;22349;-66
2022/07/13 00:37:32;;;;;;;991.17;925.47;;;;;;;21.57;44.57;101616.59;688082;28;44382;-66
2022/07/13 00:37:54;;;;;;;1005.17;938.90;;;;;;;21.56;44.63;101612.16;689127;28;1780;-65
2022/07/13 00:38:16;;;;;;;1005.42;939.08;;;;;;;21.53;44.47;101609.88;688654;28;22394;-65
2022/07/13 00:38:38;;;;;;;992.05;926.35;;;;;;;21.50;44.58;101600.16;687845;28;45228;-67
2022/07/13 00:38:59;;;;;;;982.55;919.13;;;;;;;21.52;44.67;101608.19;690091;28;23454;-65
2022/07/13 00:39:20;;;;;;;984.78;919.85;;;;;;;21.51;44.59;101609.28;688294;28;22400;-65
2022/07/13 00:39:41;;;;;;;966.35;903.25;;;;;;;21.49;44.64;101611.41;686826;28;46516;-65
2022/07/13 00:40:04;;;;;;;976.90;917.47;;;;;;;21.51;44.63;101612.03;688067;28;21518;-65
2022/07/13 00:40:26;;;;;;;1011.13;948.65;;;;;;;21.50;44.74;101607.59;687624;28;47272;-65
2022/07/13 00:40:47;;;;;;;1014.15;949.15;;;;;;;21.51;44.65;101610.09;686872;28;46343;-65
2022/07/13 00:41:08;;;;;;;1014.70;947.92;;;;;;;21.52;44.67;101603.56;687425;28;46389;-66
2022/07/13 00:41:31;;;;;;;1013.88;947.15;;;;;;;21.52;44.64;101603.56;687611;28;22408;-66
2022/07/13 00:41:52;;;;;;;1013.13;946.33;;;;;;;21.50;44.56;101596.59;689635;28;46319;-65
2022/07/13 00:42:13;;;;;;;1026.07;958.75;;;;;;;21.51;44.57;101604.63;691074;28;22338;-65
2022/07/13 00:42:36;;;;;;;1017.47;950.60;;;;;;;21.51;44.70;101609.28;688176;28;44210;-64
2022/07/13 00:42:59;;;;;;;1015.85;949.05;;;;;;;21.51;44.54;101604.63;691017;28;45032;-65
2022/07/13 00:43:20;;;;;;;1005.80;939.55;;;;;;;21.50;44.66;101602.09;690279;28;69232;-66
2022/07/13 00:43:41;;;;;;;989.03;923.67;;;;;;;21.51;44.72;101598.28;692572;28;22420;-65
2022/07/13 00:44:06;;;;;;;983.90;918.88;;;;;;;21.50;44.41;101604.84;690399;28;21535;-65
2022/07/13 00:44:28;;;;;;;983.30;918.20;;;;;;;21.49;44.75;101604.00;690234;28;85262;-65
2022/07/13 00:44:49;;;;;;;989.35;924.10;;;;;;;21.48;44.84;101601.47;689525;28;45221;-66
2022/07/13 00:45:11;;;;;;;998.50;932.67;;;;;;;21.45;44.89;101596.41;687627;28;22428;-65
2022/07/13 00:45:32;;;;;;;987.22;921.92;;;;;;;21.47;44.87;101605.25;688808;28;46278;-65
2022/07/13 00:45:54;;;;;;;990.78;925.38;;;;;;;21.45;45.01;101599.16;687722;28;20839;-65
2022/07/13 00:46:15;;;;;;;995.00;929.40;;;;;;;21.41;44.78;101596.00;687228;28;44368;-66
2022/07/13 00:46:37;;;;;;;996.15;930.55;;;;;;;21.43;45.12;101597.47;685864;28;23461;-65
2022/07/13 00:46:58;;;;;;;1005.13;938.92;;;;;;;21.45;45.26;101607.41;685249;28;46428;-66
2022/07/13 00:47:20;;;;;;;987.20;921.80;;;;;;;21.44;45.15;101601.06;687577;28;22382;-66
2022/07/13 00:47:43;;;;;;;987.28;922.05;;;;;;;21.42;44.99;101600.47;687463;28;46352;-66
2022/07/13 00:48:05;;;;;;;994.20;928.70;;;;;;;21.38;45.09;101591.84;686933;28;45292;-66
2022/07/13 00:48:27;;;;;;;990.53;925.22;;;;;;;21.45;45.13;101602.75;684103;28;69398;-65
2022/07/13 00:48:48;;;;;;;1001.22;935.30;;;;;;;21.43;45.11;101599.41;686279;28;45429;-66
2022/07/13 00:49:11;;;;;;;1033.75;966.35;;;;;;;21.43;44.87;101597.47;689816;28;22359;-66
2022/07/13 00:49:32;;;;;;;1047.32;979.22;;;;;;;21.43;44.97;101600.22;685801;28;67623;-65
2022/07/13 00:49:54;;;;;;;1039.60;971.70;;;;;;;21.41;44.97;101591.38;687296;28;43746;-66
2022/07/13 00:50:16;;;;;;;1039.30;971.50;;;;;;;21.42;45.06;101598.53;690686;28;46307;-65
2022/07/13 00:50:38;;;;;;;1038.55;971.63;;;;;;;21.41;44.91;101593.25;690755;28;22375;-66
2022/07/13 00:51:01;;;;;;;1042.65;975.00;;;;;;;21.38;45.20;101580.84;688693;28;69584;-66
2022/07/13 00:51:22;;;;;;;1037.03;969.22;;;;;;;21.41;45.05;101601.50;691111;28;5190;-66
2022/07/13 00:51:44;;;;;;;1037.82;970.00;;;;;;;21.39;45.13;101588.03;689087;28;46431;-65
2022/07/13 00:52:05;;;;;;;1047.65;979.38;;;;;;;21.41;45.21;101596.00;688335;28;22395;-66
2022/07/13 00:52:28;;;;;;;1044.30;976.60;;;;;;;21.42;45.24;101594.97;685138;28;46274;-65
2022/07/13 00:52:49;;;;;;;1045.88;978.67;;;;;;;21.40;45.16;101600.69;687597;28;44386;-65
2022/07/13 00:53:10;;;;;;;1039.80;972.53;;;;;;;21.41;45.12;101598.75;688733;28;22422;-66
2022/07/13 00:53:32;;;;;;;1039.88;972.45;;;;;;;21.41;45.15;101590.53;687992;28;23497;-65
2022/07/13 00:53:55;;;;;;;1043.95;976.60;;;;;;;21.42;45.09;101600.47;686225;28;67025;-66
2022/07/13 00:54:18;;;;;;;987.92;922.45;;;;;;;21.42;45.23;101595.78;686154;28;69479;-66
2022/07/13 00:54:41;;;;;;;1006.70;940.40;;;;;;;21.42;45.09;101589.47;689329;28;68410;-67
2022/07/13 00:55:06;;;;;;;1043.38;976.20;;;;;;;21.43;45.08;101593.91;689285;28;92993;-65
2022/07/13 00:55:28;;;;;;;997.72;931.83;;;;;;;21.43;45.11;101589.22;690641;28;115863;-65
2022/07/13 00:55:49;;;;;;;998.28;932.25;;;;;;;21.42;45.26;101586.72;692222;28;21531;-66
2022/07/13 00:56:11;;;;;;;1002.58;936.40;;;;;;;21.43;45.20;101594.72;694128;28;22431;-66
2022/07/13 00:56:32;;;;;;;995.05;928.88;;;;;;;21.43;45.17;101591.97;692380;28;44294;-66
2022/07/13 00:56:57;;;;;;;1005.00;938.53;;;;;;;21.42;45.16;101583.97;692341;28;21587;-66
2022/07/13 00:57:19;;;;;;;1008.45;942.15;;;;;;;21.42;45.05;101593.03;690179;28;115072;-66
2022/07/13 00:57:40;;;;;;;1014.95;948.15;;;;;;;21.43;45.12;101596.66;692201;28;45260;-66
2022/07/13 00:58:02;;;;;;;1015.17;948.40;;;;;;;21.41;45.06;101593.25;693501;28;22395;-65
2022/07/13 00:58:25;;;;;;;1016.13;949.53;;;;;;;21.43;45.12;101588.41;690504;28;22387;-66
2022/07/13 00:58:46;;;;;;;1024.43;957.95;;;;;;;21.46;45.18;101595.34;688463;28;92090;-65
2022/07/13 00:59:07;;;;;;;1025.05;958.08;;;;;;;21.43;44.98;101594.72;692080;28;21499;-65
2022/07/13 00:59:29;;;;;;;1014.75;947.72;;;;;;;21.46;44.96;101590.69;694845;28;22482;-66
2022/07/13 00:59:51;;;;;;;1021.42;954.40;;;;;;;21.47;44.93;101599.78;689402;28;47599;-66
2022/07/13 01:00:13;;;;;;;1022.13;955.05;;;;;;;21.49;44.99;101594.91;688363;28;46399;-66
2022/07/13 01:00:36;;;;;;;1023.05;955.88;;;;;;;21.48;45.06;101590.47;690099;28;44370;-66
2022/07/13 01:00:58;;;;;;;1023.72;956.55;;;;;;;21.50;44.90;101589.19;689402;28;46331;-65
2022/07/13 01:01:20;;;;;;;1016.38;949.55;;;;;;;21.49;45.07;101601.25;689715;28;69454;-66
2022/07/13 01:01:41;;;;;;;1026.10;959.10;;;;;;;21.51;44.92;101601.03;691424;28;21510;-66
2022/07/13 01:02:02;;;;;;;1019.92;953.45;;;;;;;21.48;45.06;101585.81;691952;28;45908;-65
2022/07/13 01:02:25;;;;;;;1018.17;951.47;;;;;;;21.50;45.00;101599.34;693910;28;22388;-65
2022/07/13 01:02:56;;;;;;;1023.45;956.47;;;;;;;21.47;45.03;101592.34;691068;28;82893;-65
2022/07/13 01:03:17;;;;;;;1016.53;949.97;;;;;;;21.42;45.07;101587.53;692773;28;46288;-66
2022/07/13 01:03:38;;;;;;;1007.92;941.45;;;;;;;21.47;45.01;101589.59;694276;28;22420;-66
2022/07/13 01:04:01;;;;;;;1011.15;944.65;;;;;;;21.45;45.08;101589.00;694992;28;21565;-65
2022/07/13 01:04:23;;;;;;;1013.63;946.72;;;;;;;21.43;44.90;101589.22;691394;28;45242;-65
2022/07/13 01:04:45;;;;;;;1011.90;945.40;;;;;;;21.43;45.14;101591.16;691949;28;69411;-65
2022/07/13 01:05:07;;;;;;;1008.30;941.70;;;;;;;21.47;45.07;101595.09;693162;28;45375;-65
2022/07/13 01:05:28;;;;;;;1014.45;947.60;;;;;;;21.48;45.20;101593.22;692539;28;44138;-66
2022/07/13 01:05:51;;;;;;;1023.97;957.15;;;;;;;21.48;45.10;101590.47;689409;28;44980;-66
2022/07/13 01:06:14;;;;;;;1023.75;956.67;;;;;;;21.48;44.92;101595.97;690186;28;67463;-65
2022/07/13 01:06:36;;;;;;;1017.72;950.72;;;;;;;21.47;45.17;101586.84;690920;28;69381;-66
2022/07/13 01:06:57;;;;;;;1021.53;954.15;;;;;;;21.47;45.18;101592.34;692758;28;22397;-65
2022/07/13 01:07:19;;;;;;;1021.78;954.78;;;;;;;21.48;44.87;101595.97;693045;28;22396;-66
2022/07/13 01:07:41;;;;;;;1013.42;946.88;;;;;;;21.48;45.09;101594.03;694488;28;44393;-65
2022/07/13 01:08:03;;;;;;;1012.00;945.28;;;;;;;21.45;45.18;101589.00;695827;28;1204;-66
2022/07/13 01:08:25;;;;;;;1019.78;952.88;;;;;;;21.47;45.20;101589.59;694061;28;46315;-65
2022/07/13 01:08:46;;;;;;;1022.42;955.38;;;;;;;21.47;45.10;101589.59;693776;28;45266;-66
2022/07/13 01:09:08;;;;;;;1020.30;953.40;;;;;;;21.47;45.14;101580.53;693139;28;22397;-65
2022/07/13 01:09:30;;;;;;;1041.32;973.85;;;;;;;21.47;45.05;101591.53;689225;28;45252;-66
2022/07/13 01:09:51;;;;;;;1050.63;982.53;;;;;;;21.42;44.99;101582.03;686950;28;44451;-66
2022/07/13 01:10:12;;;;;;;1036.60;968.90;;;;;;;21.47;45.29;101580.53;686800;28;23656;-66
2022/07/13 01:10:34;;;;;;;1035.82;968.13;;;;;;;21.46;45.21;101581.59;687928;28;21536;-66
2022/07/13 01:10:56;;;;;;;1037.70;969.88;;;;;;;21.44;45.18;101573.56;686516;28;22211;-65
2022/07/13 01:11:18;;;;;;;1043.68;976.17;;;;;;;21.46;45.22;101582.44;687389;28;67465;-66
2022/07/13 01:11:40;;;;;;;1037.30;969.97;;;;;;;21.45;45.34;101580.75;688972;28;66252;-66
2022/07/13 01:12:03;;;;;;;1005.70;939.13;;;;;;;21.45;45.28;101578.00;690638;28;35986;-66
2022/07/13 01:12:28;;;;;;;1004.38;937.72;;;;;;;21.45;45.19;101572.50;689249;28;46367;-65
2022/07/13 01:12:49;;;;;;;1047.88;979.70;;;;;;;21.45;45.35;101580.75;686809;28;115139;-65
2022/07/13 01:13:11;;;;;;;1021.75;955.13;;;;;;;21.45;45.28;101579.94;692770;28;22335;-66
2022/07/13 01:13:33;;;;;;;1008.58;942.28;;;;;;;21.43;45.35;101580.16;690815;28;22331;-66
2022/07/13 01:13:55;;;;;;;1008.28;941.78;;;;;;;21.44;45.40;101581.81;690248;28;46372;-66
2022/07/13 01:14:18;;;;;;;1007.15;941.25;;;;;;;21.42;45.63;101581.22;692660;28;46451;-66
2022/07/13 01:14:39;;;;;;;996.40;930.58;;;;;;;21.42;45.22;101579.28;691825;28;70108;-66
2022/07/13 01:15:01;;;;;;;1020.55;953.30;;;;;;;21.42;45.15;101587.53;688331;28;44141;-66
2022/07/13 01:15:22;;;;;;;1061.65;993.28;;;;;;;21.41;45.38;101580.38;690263;28;22434;-66
2022/07/13 01:15:44;;;;;;;1026.97;959.92;;;;;;;21.40;45.51;101584.19;690485;28;22394;-65
2022/07/13 01:16:08;;;;;;;1018.13;951.13;;;;;;;21.41;45.41;101585.03;689316;28;70158;-65
2022/07/13 01:16:29;;;;;;;1025.05;958.10;;;;;;;21.41;45.37;101585.03;687319;28;69509;-65
2022/07/13 01:16:51;;;;;;;1024.75;958.05;;;;;;;21.40;45.42;101584.19;688893;28;22256;-65
2022/07/13 01:17:12;;;;;;;1024.78;957.78;;;;;;;21.41;45.46;101582.28;689593;28;45220;-65
2022/07/13 01:17:36;;;;;;;1021.40;954.38;;;;;;;21.41;45.33;101582.28;687006;28;22367;-65
2022/07/13 01:17:58;;;;;;;1021.70;954.83;;;;;;;21.40;45.39;101578.69;685193;28;92743;-65
2022/07/13 01:18:19;;;;;;;1024.53;957.17;;;;;;;21.40;45.50;101581.44;686566;28;46270;-66
2022/07/13 01:18:40;;;;;;;1024.85;957.67;;;;;;;21.41;45.49;101585.88;690055;28;21477;-66
2022/07/13 01:19:03;;;;;;;1034.95;967.45;;;;;;;21.39;45.48;101576.19;688784;28;21540;-65
2022/07/13 01:19:26;;;;;;;1047.32;979.42;;;;;;;21.40;45.46;101577.88;688166;28;67397;-65
2022/07/13 01:19:48;;;;;;;1025.82;958.75;;;;;;;21.39;45.52;101573.44;689713;28;67475;-67
2022/07/13 01:20:09;;;;;;;1025.47;958.88;;;;;;;21.40;45.50;101580.63;692052;28;47319;-65
2022/07/13 01:20:31;;;;;;;1033.95;967.00;;;;;;;21.38;45.53;101574.53;692336;28;44125;-65
2022/07/13 01:20:53;;;;;;;1030.22;962.85;;;;;;;21.36;45.38;101574.75;694071;28;22306;-66
2022/07/13 01:21:18;;;;;;;1030.07;962.58;;;;;;;21.38;45.58;101571.78;695888;28;45194;-66
2022/07/13 01:21:41;;;;;;;1040.30;972.75;;;;;;;21.37;45.55;101573.66;690968;28;134860;-65
2022/07/13 01:22:03;;;;;;;1052.65;984.30;;;;;;;21.38;45.45;101580.00;694104;28;44317;-65
2022/07/13 01:22:26;;;;;;;1043.57;975.60;;;;;;;21.37;45.66;101572.84;693203;28;67491;-65
2022/07/13 01:22:52;;;;;;;1032.07;964.58;;;;;;;21.37;45.54;101570.91;691182;28;67425;-65
2022/07/13 01:23:15;;;;;;;1023.97;957.15;;;;;;;21.36;45.60;101569.25;686238;28;138131;-65
2022/07/13 01:23:36;;;;;;;988.47;922.70;;;;;;;21.36;45.37;101574.75;689674;28;45208;-65
2022/07/13 01:23:59;;;;;;;1033.65;965.88;;;;;;;21.33;45.60;101571.59;687537;28;45051;-66
2022/07/13 01:24:20;;;;;;;1073.28;999.90;;;;;;;21.35;45.75;101566.72;685920;28;44408;-66
2022/07/13 01:24:43;;;;;;;1039.50;972.05;;;;;;;21.36;45.80;101569.25;687608;28;46452;-66
2022/07/13 01:25:05;;;;;;;1030.43;963.03;;;;;;;21.34;45.85;101571.38;685382;28;69519;-65
2022/07/13 01:25:27;;;;;;;1021.35;954.25;;;;;;;21.34;45.69;101567.78;687427;28;46174;-65
2022/07/13 01:25:48;;;;;;;1022.22;955.33;;;;;;;21.33;45.75;101569.72;688482;28;22428;-65
2022/07/13 01:26:10;;;;;;;1021.97;954.72;;;;;;;21.33;45.88;101571.59;691730;28;22379;-66
2022/07/13 01:26:32;;;;;;;1022.97;956.00;;;;;;;21.27;46.07;101556.88;689351;28;44355;-66
2022/07/13 01:26:59;;;;;;;1032.10;964.80;;;;;;;21.32;45.98;101559.78;686242;28;67331;-66
2022/07/13 01:27:20;;;;;;;1024.25;956.85;;;;;;;21.33;45.80;101563.34;686073;28;161032;-66
2022/07/13 01:27:43;;;;;;;1025.35;958.55;;;;;;;21.33;45.80;101568.84;689483;28;46382;-65
2022/07/13 01:28:06;;;;;;;1033.40;966.20;;;;;;;21.33;45.92;101572.47;688339;28;67504;-66
2022/07/13 01:28:27;;;;;;;1041.15;973.15;;;;;;;21.33;45.89;101571.59;688661;28;46587;-65
2022/07/13 01:28:49;;;;;;;1026.78;959.53;;;;;;;21.33;45.89;101569.72;690908;28;46382;-66
2022/07/13 01:29:10;;;;;;;1027.38;960.08;;;;;;;21.35;46.10;101570.31;693445;28;22391;-65
2022/07/13 01:29:32;;;;;;;1025.63;958.38;;;;;;;21.37;45.93;101570.91;691685;28;2202;-66
2022/07/13 01:29:53;;;;;;;1024.82;957.72;;;;;;;21.39;46.00;101571.53;689734;28;44360;-66
2022/07/13 01:30:15;;;;;;;1025.18;958.13;;;;;;;21.42;46.09;101575.72;691625;28;21454;-65
2022/07/13 01:30:36;;;;;;;1032.20;964.80;;;;;;;21.42;45.93;101568.31;692590;28;46245;-65
2022/07/13 01:30:58;;;;;;;1042.13;974.20;;;;;;;21.42;46.18;101573.81;691435;28;21393;-66
2022/07/13 01:31:27;;;;;;;1040.53;972.83;;;;;;;21.39;45.99;101560.56;689286;28;46352;-65
2022/07/13 01:31:48;;;;;;;1030.90;963.47;;;;;;;21.42;46.00;101568.31;685419;28;160107;-66
2022/07/13 01:32:09;;;;;;;1035.65;968.42;;;;;;;21.42;46.02;101570.22;687186;28;46372;-65
2022/07/13 01:32:42;;;;;;;1037.70;970.63;;;;;;;21.43;46.15;101571.91;688906;28;22172;-66
2022/07/13 01:33:04;;;;;;;1047.32;979.20;;;;;;;21.42;46.04;101573.81;681399;28;137429;-66
2022/07/13 01:33:25;;;;;;;1024.30;956.90;;;;;;;21.42;46.10;101565.56;687114;28;46310;-65
2022/07/13 01:33:47;;;;;;;1029.82;962.63;;;;;;;21.41;46.10;101568.53;689346;28;22359;-66
2022/07/13 01:34:09;;;;;;;1031.18;963.63;;;;;;;21.42;45.80;101567.47;689130;28;46502;-66
2022/07/13 01:34:31;;;;;;;1050.50;982.45;;;;;;;21.40;46.00;101558.63;691154;28;22380;-66
2022/07/13 01:34:52;;;;;;;1042.63;974.83;;;;;;;21.41;46.10;101569.41;686786;28;68009;-66
2022/07/13 01:35:14;;;;;;;1028.15;960.80;;;;;;;21.39;45.95;101565.19;690606;28;23638;-66
2022/07/13 01:35:35;;;;;;;1032.70;965.50;;;;;;;21.40;45.87;101564.97;688843;28;46435;-66
2022/07/13 01:35:56;;;;;;;1030.05;962.85;;;;;;;21.33;46.00;101555.97;686341;28;45272;-66
2022/07/13 01:36:19;;;;;;;1030.15;962.65;;;;;;;21.36;46.02;101562.91;687645;28;21535;-66
2022/07/13 01:36:40;;;;;;;1037.53;969.72;;;;;;;21.38;46.09;101560.78;686007;28;66391;-66
2022/07/13 01:37:02;;;;;;;1041.40;973.80;;;;;;;21.38;46.00;101566.28;689482;28;43138;-66
2022/07/13 01:37:24;;;;;;;1048.53;980.42;;;;;;;21.36;46.22;101563.75;691507;28;4434;-66
2022/07/13 01:37:46;;;;;;;1042.07;974.17;;;;;;;21.33;46.12;101561.47;688742;28;69231;-66